Time;durP1;ratioP1;P1;durP2;ratioP2;P2;SDS_P1;SDS_P2;PMS_P1;PMS_P2;Temp;Humidity;BMP_temperature;BMP_pressure;BME280_temperature;BME280_humidity;BME280_pressure;Samples;Min_cycle;Max_cycle;Signal;HPM_P1;HPM_P2
2022/08/03 00:03:18;;;;;;;0.10;0.10;;;;;;;19.52;100.00;101459.31;10430450;28;20028;-73
2022/08/03 00:08:19;;;;;;;0.10;0.10;;;;;;;19.45;100.00;101459.28;10422033;28;20456;-72
2022/08/03 00:13:19;;;;;;;0.00;0.00;;;;;;;19.39;100.00;101457.38;10418180;28;20068;-72
2022/08/03 00:18:20;;;;;;;0.10;0.10;;;;;;;19.34;100.00;101450.91;10439074;28;20076;-72
2022/08/03 00:23:20;;;;;;;0.10;0.10;;;;;;;19.34;100.00;101446.34;10436811;28;20043;-73
2022/08/03 00:28:21;;;;;;;0.00;0.00;;;;;;;19.39;100.00;101438.47;10437857;28;20388;-72
2022/08/03 00:33:21;;;;;;;0.00;0.00;;;;;;;19.35;100.00;101439.91;10438291;28;20029;-73
2022/08/03 00:38:22;;;;;;;0.00;0.00;;;;;;;19.38;100.00;101431.41;10436580;28;20103;-74
2022/08/03 00:43:28;;;;;;;0.00;0.00;;;;;;;19.36;100.00;101435.34;10434156;28;20294;-73
2022/08/03 00:48:28;;;;;;;0.10;0.10;;;;;;;19.26;100.00;101432.19;10444818;28;20037;-74
2022/08/03 00:53:28;;;;;;;0.10;0.10;;;;;;;19.22;100.00;101434.44;10442141;28;20026;-74
2022/08/03 00:58:29;;;;;;;0.00;0.00;;;;;;;19.16;100.00;101429.88;10428018;28;20115;-74
2022/08/03 01:03:29;;;;;;;0.00;0.00;;;;;;;19.07;100.00;101428.38;10433327;28;20071;-74
2022/08/03 01:08:42;;;;;;;0.00;0.00;;;;;;;18.97;100.00;101424.19;10415510;28;20066;-74
2022/08/03 01:14:05;;;;;;;0.10;0.10;;;;;;;18.92;100.00;101433.91;10424579;28;20025;-74
2022/08/03 01:19:50;;;;;;;0.10;0.10;;;;;;;18.86;100.00;101432.00;10432108;28;20468;-74
2022/08/03 01:25:23;;;;;;;0.00;0.00;;;;;;;18.81;100.00;101426.38;10414930;28;20480;-74
2022/08/03 01:30:28;;;;;;;0.00;0.00;;;;;;;18.73;100.00;101430.00;10428438;28;20033;-74
2022/08/03 01:35:37;;;;;;;0.10;0.10;;;;;;;18.66;100.00;101434.56;10420029;28;20067;-74
2022/08/03 01:40:40;;;;;;;0.00;0.00;;;;;;;18.61;100.00;101434.31;10431517;28;20454;-73
2022/08/03 01:45:42;;;;;;;0.00;0.00;;;;;;;18.55;100.00;101435.91;10428764;28;20021;-74
2022/08/03 01:50:45;;;;;;;0.10;0.10;;;;;;;18.48;100.00;101424.25;10431158;28;20017;-74
2022/08/03 01:55:48;;;;;;;0.10;0.10;;;;;;;18.43;100.00;101424.84;10436824;28;20021;-74
2022/08/03 02:00:50;;;;;;;0.00;0.00;;;;;;;18.32;100.00;101419.97;10433541;28;20485;-74
2022/08/03 02:05:52;;;;;;;0.10;0.10;;;;;;;18.25;100.00;101422.63;10433112;28;20108;-73
2022/08/03 02:10:56;;;;;;;0.10;0.10;;;;;;;18.19;100.00;101422.59;10444126;28;20466;-73
2022/08/03 02:15:57;;;;;;;0.10;0.10;;;;;;;18.13;100.00;101428.75;10435284;28;20029;-73
2022/08/03 02:21:00;;;;;;;0.10;0.10;;;;;;;17.99;100.00;101430.50;10444259;28;20032;-73
2022/08/03 02:26:05;;;;;;;0.10;0.10;;;;;;;17.82;100.00;101428.06;10432103;28;20029;-73
2022/08/03 02:31:12;;;;;;;0.10;0.10;;;;;;;17.70;100.00;101426.88;10429481;28;20151;-73
2022/08/03 02:36:15;;;;;;;0.00;0.00;;;;;;;17.55;100.00;101424.22;10430299;28;20380;-74
2022/08/03 02:41:19;;;;;;;0.10;0.10;;;;;;;17.36;100.00;101422.13;10437439;28;20388;-73
2022/08/03 02:46:24;;;;;;;0.10;0.10;;;;;;;17.19;100.00;101416.97;10441071;28;20115;-74
2022/08/03 02:51:28;;;;;;;0.10;0.10;;;;;;;17.05;100.00;101404.38;10428138;28;20171;-75
2022/08/03 02:56:29;;;;;;;0.10;0.10;;;;;;;16.90;100.00;101411.63;10439297;28;20028;-73
2022/08/03 03:01:30;;;;;;;0.10;0.10;;;;;;;16.80;100.00;101405.69;10425195;28;20017;-73
2022/08/03 03:06:32;;;;;;;0.10;0.10;;;;;;;16.74;100.00;101409.94;10436072;28;20311;-74
2022/08/03 03:11:35;;;;;;;0.10;0.10;;;;;;;16.69;100.00;101406.94;10438552;28;20021;-73
2022/08/03 03:16:35;;;;;;;0.00;0.00;;;;;;;16.70;100.00;101414.03;10434504;28;20064;-73
2022/08/03 03:21:36;;;;;;;0.00;0.00;;;;;;;16.69;100.00;101417.72;10429440;28;20052;-74
2022/08/03 03:26:37;;;;;;;0.10;0.10;;;;;;;16.79;100.00;101412.09;10443425;28;20346;-73
2022/08/03 03:31:38;;;;;;;0.10;0.10;;;;;;;16.81;100.00;101418.94;10428292;28;20388;-73
2022/08/03 03:36:39;;;;;;;0.10;0.10;;;;;;;16.86;100.00;101421.09;10421475;28;20022;-73
2022/08/03 03:41:39;;;;;;;0.10;0.10;;;;;;;16.89;100.00;101420.72;10433168;28;20016;-73
2022/08/03 03:46:40;;;;;;;0.10;0.10;;;;;;;16.89;100.00;101421.53;10433853;28;20025;-74
2022/08/03 03:51:40;;;;;;;0.08;0.08;;;;;;;16.99;100.00;101410.53;10430355;28;20075;-73
2022/08/03 03:56:41;;;;;;;0.10;0.10;;;;;;;17.26;100.00;101417.06;10430192;28;20029;-73
2022/08/03 04:01:41;;;;;;;0.10;0.10;;;;;;;17.57;100.00;101405.16;10409637;28;20025;-73
2022/08/03 04:12:01;;;;;;;0.10;0.10;;;;;;;18.33;100.00;101410.88;10419858;28;20056;-73
2022/08/03 04:17:05;;;;;;;0.10;0.10;;;;;;;19.02;100.00;101401.97;10430444;28;20024;-73
2022/08/03 04:22:09;;;;;;;0.10;0.10;;;;;;;19.96;100.00;101406.63;10424501;28;20021;-73
2022/08/03 04:27:13;;;;;;;0.10;0.10;;;;;;;20.85;100.00;101409.88;10429094;28;20384;-73
2022/08/03 04:32:13;;;;;;;;;;;;;;;22.04;100.00;101403.81;10417952;28;20389;-73
2022/08/03 04:37:42;;;;;;;0.10;0.10;;;;;;;23.17;100.00;101415.44;10413773;28;19955;-74
2022/08/03 04:42:43;;;;;;;0.00;0.00;;;;;;;24.25;98.25;101417.19;10424017;28;20055;-74
2022/08/03 04:47:44;;;;;;;0.10;0.10;;;;;;;25.15;92.12;101424.13;10428540;28;20112;-74
2022/08/03 04:52:44;;;;;;;0.10;0.10;;;;;;;25.97;87.30;101423.75;10433160;28;20112;-74
2022/08/03 04:57:44;;;;;;;0.10;0.10;;;;;;;26.72;82.96;101420.84;10424701;28;20446;-74
2022/08/03 05:02:45;;;;;;;0.10;0.10;;;;;;;27.43;78.06;101423.63;10415925;28;20025;-74
2022/08/03 05:07:45;;;;;;;0.10;0.10;;;;;;;28.19;71.53;101423.53;10429146;28;20543;-73
2022/08/03 05:12:46;;;;;;;0.10;0.10;;;;;;;28.77;68.04;101427.22;10417651;28;20366;-73
2022/08/03 05:17:47;;;;;;;0.10;0.10;;;;;;;28.85;65.64;101428.59;10426177;28;20060;-73
2022/08/03 05:22:48;;;;;;;0.10;0.10;;;;;;;28.58;65.83;101429.56;10427034;28;20456;-73
2022/08/03 05:27:48;;;;;;;0.10;0.10;;;;;;;28.54;66.96;101430.38;10434960;28;20017;-73
2022/08/03 05:32:48;;;;;;;0.10;0.10;;;;;;;28.78;65.78;101428.84;10425190;28;20033;-73
2022/08/03 05:37:49;;;;;;;0.10;0.10;;;;;;;29.35;65.89;101427.16;10420374;28;20028;-73
2022/08/03 05:42:49;;;;;;;0.10;0.10;;;;;;;29.72;63.61;101423.44;10426104;28;20026;-74
2022/08/03 05:47:50;;;;;;;0.10;0.10;;;;;;;30.19;62.56;101423.13;10424769;28;20029;-74
2022/08/03 05:52:55;;;;;;;0.10;0.10;;;;;;;30.73;60.19;101431.88;10451370;28;20029;-74
2022/08/03 05:57:56;;;;;;;0.10;0.10;;;;;;;30.98;57.44;101420.81;10436460;28;20128;-74
2022/08/03 06:02:57;;;;;;;0.10;0.10;;;;;;;30.61;58.44;101418.44;10434663;28;20108;-74
2022/08/03 06:07:57;;;;;;;;;;;;;;;30.82;59.95;101411.78;10435737;28;20024;-74
2022/08/03 06:12:57;;;;;;;0.10;0.10;;;;;;;30.75;57.50;101416.75;10420211;28;20303;-74
2022/08/03 06:17:58;;;;;;;;;;;;;;;30.75;59.51;101410.41;10426677;28;20041;-72
2022/08/03 06:22:59;;;;;;;0.10;0.10;;;;;;;31.51;57.88;101415.56;10413447;28;19909;-73
2022/08/03 06:27:59;;;;;;;0.10;0.10;;;;;;;31.53;56.52;101418.03;10435271;28;20033;-73
2022/08/03 06:33:00;;;;;;;0.10;0.10;;;;;;;32.09;54.38;101411.28;10431558;28;20021;-73
2022/08/03 06:38:00;;;;;;;0.10;0.10;;;;;;;32.56;52.78;101426.28;10412446;28;20275;-73
2022/08/03 06:43:02;;;;;;;0.10;0.10;;;;;;;33.02;54.89;101423.00;10418259;28;20102;-73
2022/08/03 06:48:05;;;;;;;0.10;0.10;;;;;;;33.42;53.97;101424.34;10430380;28;20029;-73
2022/08/03 06:53:06;;;;;;;0.10;0.10;;;;;;;33.97;50.79;101430.13;10417047;28;20108;-74
2022/08/03 06:58:06;;;;;;;0.10;0.10;;;;;;;34.32;49.70;101435.34;10425087;28;20315;-74
2022/08/03 07:03:06;;;;;;;0.10;0.10;;;;;;;34.81;48.77;101429.16;10427304;28;20040;-75
2022/08/03 07:08:07;;;;;;;0.10;0.10;;;;;;;34.93;45.06;101442.47;10442896;28;20140;-74
2022/08/03 07:13:07;;;;;;;0.10;0.10;;;;;;;35.19;43.78;101428.09;10422542;28;20060;-73
2022/08/03 07:18:07;;;;;;;0.10;0.10;;;;;;;35.50;44.65;101433.78;10430441;28;20021;-74
2022/08/03 07:23:08;;;;;;;0.10;0.10;;;;;;;35.71;45.32;101434.13;10423869;28;20260;-74
2022/08/03 07:28:09;;;;;;;0.10;0.10;;;;;;;34.90;44.81;101437.56;10391877;28;20033;-74
2022/08/03 07:33:09;;;;;;;0.10;0.10;;;;;;;33.97;47.65;101437.59;10411196;28;20025;-75
2022/08/03 07:38:09;;;;;;;0.10;0.10;;;;;;;34.25;48.34;101446.81;10414889;28;20539;-74
2022/08/03 07:43:09;;;;;;;0.10;0.10;;;;;;;34.59;47.04;101442.88;10429766;28;20036;-75
2022/08/03 07:48:10;;;;;;;0.10;0.10;;;;;;;34.63;48.09;101444.75;10426923;28;20388;-75
2022/08/03 07:53:10;;;;;;;0.10;0.10;;;;;;;34.31;47.11;101442.84;10428595;28;20360;-75
2022/08/03 07:58:14;;;;;;;0.10;0.10;;;;;;;34.07;49.94;101437.47;10435014;28;20052;-75
2022/08/03 08:03:15;;;;;;;0.10;0.10;;;;;;;34.41;48.08;101439.91;10425750;28;20021;-75
2022/08/03 08:08:15;;;;;;;0.10;0.10;;;;;;;34.69;45.95;101443.50;10407049;28;20036;-75
2022/08/03 08:13:16;;;;;;;0.10;0.10;;;;;;;34.96;46.04;101446.56;10413866;28;20028;-75
2022/08/03 08:18:17;;;;;;;0.10;0.10;;;;;;;35.09;46.45;101445.78;10418933;28;20365;-75
2022/08/03 08:23:21;;;;;;;0.10;0.10;;;;;;;35.24;45.78;101450.16;10431193;28;20029;-75
2022/08/03 08:28:22;;;;;;;0.10;0.10;;;;;;;34.96;46.72;101441.84;10424712;28;20075;-75
2022/08/03 08:33:22;;;;;;;0.10;0.10;;;;;;;34.88;48.19;101439.84;10429754;28;20051;-75
2022/08/03 08:38:23;;;;;;;0.10;0.10;;;;;;;34.52;47.35;101437.72;10426024;28;20020;-75
2022/08/03 08:43:23;;;;;;;0.10;0.10;;;;;;;34.29;48.23;101441.50;10436405;28;20374;-75
2022/08/03 08:48:25;;;;;;;0.10;0.10;;;;;;;34.18;49.63;101436.16;10425377;28;20479;-73
2022/08/03 08:53:28;;;;;;;0.10;0.10;;;;;;;33.90;49.11;101437.19;10439008;28;20025;-74
2022/08/03 08:58:33;;;;;;;0.10;0.10;;;;;;;33.79;49.18;101437.34;10437603;28;20031;-73
2022/08/03 09:03:33;;;;;;;0.10;0.10;;;;;;;33.63;48.82;101441.47;10420682;28;21090;-74
2022/08/03 09:08:34;;;;;;;0.10;0.10;;;;;;;33.46;49.98;101439.22;10429697;28;20028;-73
2022/08/03 09:13:35;;;;;;;0.10;0.10;;;;;;;33.37;50.01;101435.47;10431968;28;20032;-73
2022/08/03 09:18:35;;;;;;;;;;;;;;;33.47;49.48;101437.25;10440374;28;20029;-74
2022/08/03 09:23:53;;;;;;;0.10;0.10;;;;;;;33.44;48.72;101435.09;10439093;28;19916;-74
2022/08/03 09:29:08;;;;;;;0.10;0.10;;;;;;;33.11;48.00;101437.78;10420710;28;20025;-74
2022/08/03 09:34:11;;;;;;;0.10;0.10;;;;;;;33.22;51.01;101427.41;10432603;28;20119;-73
2022/08/03 09:39:16;;;;;;;0.10;0.10;;;;;;;33.16;48.33;101432.16;10437708;28;20120;-75
2022/08/03 09:44:16;;;;;;;0.10;0.10;;;;;;;33.01;49.38;101424.09;10441089;28;20033;-73
2022/08/03 09:49:17;;;;;;;0.10;0.10;;;;;;;32.66;51.24;101426.16;10436523;28;20139;-75
2022/08/03 09:54:31;;;;;;;0.10;0.10;;;;;;;32.52;52.39;101426.03;10440677;28;20028;-73
2022/08/03 09:59:33;;;;;;;0.10;0.10;;;;;;;32.24;52.36;101420.22;10417080;28;20030;-73
2022/08/03 10:04:33;;;;;;;0.10;0.10;;;;;;;31.89;52.83;101418.59;10408215;28;20549;-73
2022/08/03 10:09:34;;;;;;;0.10;0.10;;;;;;;31.69;56.10;101414.06;10417149;28;20122;-74
2022/08/03 10:14:38;;;;;;;0.00;0.00;;;;;;;31.86;54.76;101418.34;10412698;28;20171;-75
2022/08/03 10:19:39;;;;;;;0.10;0.10;;;;;;;32.16;55.73;101414.53;10443176;28;20480;-74
2022/08/03 10:24:49;;;;;;;0.00;0.00;;;;;;;32.47;56.11;101402.09;10407214;28;21002;-75
2022/08/03 10:29:55;;;;;;;0.10;0.10;;;;;;;32.64;52.65;101409.09;10419920;28;20021;-74
2022/08/03 10:35:06;;;;;;;0.03;0.03;;;;;;;32.28;52.53;101403.91;10429423;28;20028;-75
2022/08/03 10:40:11;;;;;;;0.10;0.10;;;;;;;31.73;54.00;101414.31;10416938;28;20025;-75
2022/08/03 10:45:18;;;;;;;0.10;0.10;;;;;;;31.30;55.60;101411.25;10422988;28;20373;-74
2022/08/03 10:50:21;;;;;;;0.00;0.00;;;;;;;31.43;58.73;101410.66;10430232;28;20028;-74
2022/08/03 11:00:51;;;;;;;0.10;0.10;;;;;;;31.50;55.54;101405.66;10424837;28;20025;-75
2022/08/03 11:05:54;;;;;;;0.10;0.10;;;;;;;31.56;57.15;101415.53;10437154;28;20413;-75
2022/08/03 11:11:27;;;;;;;0.00;0.00;;;;;;;31.77;56.26;101416.22;10419267;28;20024;-74
2022/08/03 11:16:28;;;;;;;0.00;0.00;;;;;;;31.89;54.24;101409.50;10419189;28;20017;-73
2022/08/03 11:21:47;;;;;;;0.10;0.10;;;;;;;31.95;52.89;101416.66;10423186;28;20037;-73
2022/08/03 11:27:13;;;;;;;0.10;0.10;;;;;;;31.84;54.12;101407.59;10435694;28;20021;-74
2022/08/03 11:32:36;;;;;;;0.00;0.00;;;;;;;31.57;53.71;101408.09;10422335;28;20017;-74
2022/08/03 11:37:55;;;;;;;0.00;0.00;;;;;;;31.47;52.30;101420.00;10436931;28;20471;-74
2022/08/03 11:42:55;;;;;;;0.10;0.10;;;;;;;31.21;54.68;101405.53;10435649;28;20065;-74
2022/08/03 11:47:59;;;;;;;0.10;0.10;;;;;;;31.58;56.62;101405.03;10425606;28;20075;-74
2022/08/03 11:52:59;;;;;;;0.10;0.10;;;;;;;31.97;55.79;101412.50;10424829;28;20017;-74
2022/08/03 11:58:00;;;;;;;0.10;0.10;;;;;;;32.29;53.37;101407.50;10419219;28;20025;-74
2022/08/03 12:03:06;;;;;;;0.00;0.00;;;;;;;32.53;53.83;101411.13;10423076;28;20443;-74
2022/08/03 12:08:08;;;;;;;0.10;0.10;;;;;;;32.62;51.69;101401.09;10433555;28;20104;-74
2022/08/03 12:13:08;;;;;;;0.10;0.10;;;;;;;32.31;53.62;101405.28;10430802;28;20013;-75
2022/08/03 12:18:17;;;;;;;0.10;0.10;;;;;;;32.15;53.17;101399.09;10423094;28;20468;-75
2022/08/03 12:23:18;;;;;;;0.10;0.10;;;;;;;32.02;55.06;101389.56;10429609;28;20022;-75
2022/08/03 12:28:22;;;;;;;0.10;0.10;;;;;;;32.12;54.32;101385.91;10415661;28;20108;-75
2022/08/03 12:33:26;;;;;;;0.10;0.10;;;;;;;32.12;54.87;101383.16;10423782;28;20017;-75
2022/08/03 12:38:27;;;;;;;0.10;0.10;;;;;;;32.26;53.98;101389.63;10428332;28;20075;-74
2022/08/03 12:43:27;;;;;;;0.10;0.10;;;;;;;32.42;53.00;101384.75;10431046;28;20100;-74
2022/08/03 12:48:28;;;;;;;0.03;0.03;;;;;;;32.32;52.63;101380.19;10438410;28;20044;-74
2022/08/03 12:53:29;;;;;;;0.10;0.10;;;;;;;32.26;54.18;101373.09;10424374;28;20029;-74
2022/08/03 12:58:32;;;;;;;0.10;0.10;;;;;;;31.97;53.37;101386.84;10431120;28;20028;-74
2022/08/03 13:03:43;;;;;;;0.00;0.00;;;;;;;31.76;52.34;101380.69;10421580;28;20033;-74
2022/08/03 13:08:46;;;;;;;0.10;0.10;;;;;;;31.72;54.13;101385.13;10431799;28;20018;-73
2022/08/03 13:13:47;;;;;;;0.10;0.10;;;;;;;31.92;53.75;101378.66;10414351;28;20547;-74
2022/08/03 13:18:48;;;;;;;0.00;0.00;;;;;;;32.01;52.94;101376.91;10430955;28;20220;-74
2022/08/03 13:23:48;;;;;;;0.10;0.10;;;;;;;32.06;52.79;101385.13;10425535;28;20492;-74
2022/08/03 13:28:49;;;;;;;0.10;0.10;;;;;;;32.16;52.82;101376.75;10424924;28;20040;-74
2022/08/03 13:33:49;;;;;;;0.00;0.00;;;;;;;32.26;53.91;101378.59;10433272;28;20029;-74
2022/08/03 13:38:49;;;;;;;0.10;0.10;;;;;;;32.30;52.08;101378.84;10425788;28;20018;-74
2022/08/03 13:43:50;;;;;;;0.10;0.10;;;;;;;32.32;56.64;101376.59;10435769;28;20109;-74
2022/08/03 13:48:50;;;;;;;0.00;0.00;;;;;;;32.25;54.89;101374.19;10427707;28;20024;-75
2022/08/03 13:53:51;;;;;;;0.00;0.00;;;;;;;32.04;52.43;101370.00;10445776;28;20013;-75
2022/08/03 13:58:51;;;;;;;0.10;0.10;;;;;;;31.91;53.28;101365.97;10435722;28;20025;-74
2022/08/03 14:03:53;;;;;;;0.10;0.10;;;;;;;31.87;54.04;101357.44;10438376;28;20033;-75
2022/08/03 14:08:55;;;;;;;0.10;0.10;;;;;;;31.79;55.82;101361.66;10414660;28;20028;-74
2022/08/03 14:13:55;;;;;;;;;;;;;;;31.70;52.53;101368.06;10411222;28;20392;-74
2022/08/03 14:18:55;;;;;;;;;;;;;;;31.48;55.26;101363.03;10443323;28;19939;-74
2022/08/03 14:23:56;;;;;;;0.10;0.10;;;;;;;31.43;57.20;101360.31;10454872;28;20038;-74
2022/08/03 14:28:56;;;;;;;0.10;0.10;;;;;;;31.51;55.56;101356.94;10455081;28;20025;-74
2022/08/03 14:33:57;;;;;;;0.07;0.07;;;;;;;31.54;57.33;101354.44;10454983;28;20083;-74
2022/08/03 14:38:57;;;;;;;0.03;0.03;;;;;;;31.64;57.98;101358.22;10454691;28;20029;-73
2022/08/03 14:43:57;;;;;;;0.00;0.00;;;;;;;31.72;53.69;101358.41;10454244;28;20033;-73
2022/08/03 14:48:58;;;;;;;0.00;0.00;;;;;;;31.72;53.50;101352.09;10434071;28;20091;-74
2022/08/03 14:53:58;;;;;;;0.00;0.00;;;;;;;31.64;52.48;101349.94;10412640;28;20068;-74
2022/08/03 14:58:58;;;;;;;0.03;0.03;;;;;;;31.65;52.76;101343.31;10412694;28;20021;-73
2022/08/03 15:03:59;;;;;;;0.10;0.10;;;;;;;31.60;52.52;101343.38;10411952;28;20459;-73
2022/08/03 15:09:00;;;;;;;;;;;;;;;31.33;53.58;101333.66;10413221;28;20045;-73
2022/08/03 15:14:01;;;;;;;0.10;0.10;;;;;;;30.84;53.35;101346.31;10411832;28;19909;-73
2022/08/03 15:19:01;;;;;;;0.00;0.00;;;;;;;30.80;56.27;101331.47;10443499;28;20059;-73
2022/08/03 15:24:02;;;;;;;0.00;0.00;;;;;;;30.99;53.84;101342.66;10452741;28;20032;-74
2022/08/03 15:29:02;;;;;;;0.00;0.00;;;;;;;31.12;57.34;101328.25;10452829;28;20057;-74
2022/08/03 15:34:02;;;;;;;0.07;0.07;;;;;;;31.18;56.54;101331.00;10451943;28;20071;-74
2022/08/03 15:39:04;;;;;;;0.10;0.10;;;;;;;31.15;53.28;101339.81;10451417;28;20488;-74
2022/08/03 15:44:04;;;;;;;0.10;0.10;;;;;;;31.05;53.70;101336.03;10451906;28;20028;-74
2022/08/03 15:49:05;;;;;;;0.10;0.10;;;;;;;30.89;54.04;101327.06;10422816;28;20120;-74
2022/08/03 15:54:05;;;;;;;0.10;0.10;;;;;;;30.67;58.32;101323.84;10410057;28;20025;-74
2022/08/03 15:59:06;;;;;;;0.03;0.03;;;;;;;30.60;60.10;101323.28;10410440;28;20030;-74
2022/08/03 16:04:06;;;;;;;0.23;0.20;;;;;;;30.59;58.14;101335.41;10409812;28;20030;-74
2022/08/03 16:09:07;;;;;;;0.03;0.03;;;;;;;30.43;58.22;101331.91;10442312;28;20025;-74
2022/08/03 16:14:09;;;;;;;0.10;0.10;;;;;;;30.30;57.85;101338.81;10410127;28;20026;-74
2022/08/03 16:19:09;;;;;;;0.10;0.10;;;;;;;30.23;57.93;101336.34;10417819;28;20100;-74
2022/08/03 16:24:09;;;;;;;0.10;0.10;;;;;;;30.28;60.26;101335.50;10409739;28;20100;-73
2022/08/03 16:29:10;;;;;;;0.00;0.00;;;;;;;30.39;59.70;101331.63;10410047;28;20032;-74
2022/08/03 16:34:10;;;;;;;0.07;0.07;;;;;;;30.50;58.51;101329.66;10409716;28;20543;-74
2022/08/03 16:39:10;;;;;;;0.10;0.10;;;;;;;30.50;57.54;101331.59;10409570;28;20053;-74
2022/08/03 16:44:11;;;;;;;0.03;0.03;;;;;;;30.44;58.63;101328.88;10409268;28;20034;-74
2022/08/03 16:49:11;;;;;;;0.00;0.00;;;;;;;30.26;58.63;101328.66;10431919;28;20457;-74
2022/08/03 16:54:12;;;;;;;0.10;0.10;;;;;;;30.09;58.71;101327.03;10449282;28;20044;-74
2022/08/03 16:59:12;;;;;;;0.10;0.10;;;;;;;29.95;59.79;101331.44;10449589;28;20025;-74
2022/08/03 17:04:13;;;;;;;0.10;0.10;;;;;;;29.73;59.61;101339.97;10416924;28;20488;-74
2022/08/03 17:09:17;;;;;;;0.07;0.07;;;;;;;29.47;62.23;101341.88;10416951;28;20062;-74
2022/08/03 17:14:23;;;;;;;0.00;0.00;;;;;;;29.27;63.11;101338.00;10416844;28;20021;-74
2022/08/03 17:19:25;;;;;;;0.10;0.10;;;;;;;29.19;62.13;101344.00;10416228;28;20123;-74
2022/08/03 17:24:33;;;;;;;0.00;0.00;;;;;;;29.11;62.73;101341.78;10448530;28;20373;-73
2022/08/03 17:29:38;;;;;;;0.00;0.00;;;;;;;29.00;62.76;101340.09;10416237;28;20456;-74
2022/08/03 17:34:43;;;;;;;0.10;0.10;;;;;;;28.80;66.94;101346.38;10416044;28;20028;-74
2022/08/03 17:39:44;;;;;;;0.10;0.10;;;;;;;28.42;69.62;101346.47;10447555;28;20029;-72
2022/08/03 17:44:45;;;;;;;0.00;0.00;;;;;;;28.02;73.60;101344.28;10415546;28;20457;-72
2022/08/03 17:49:45;;;;;;;0.03;0.03;;;;;;;27.63;78.31;101354.59;10453498;28;20360;-72
2022/08/03 17:54:51;;;;;;;0.10;0.10;;;;;;;27.16;82.62;101357.97;10456797;28;20025;-73
2022/08/03 18:03:13;;;;;;;0.10;0.10;;;;;;;26.77;85.18;101356.13;10456303;28;20041;-72
2022/08/03 18:05:26;;;;;;;0.08;0.08;;;;;;;26.54;84.15;101370.06;10431787;28;20073;-72
2022/08/03 18:10:32;;;;;;;0.00;0.00;;;;;;;26.37;85.93;101372.78;10414169;28;20025;-72
2022/08/03 18:15:50;;;;;;;0.10;0.10;;;;;;;26.06;90.27;101377.78;10414752;28;20025;-73
2022/08/03 18:20:52;;;;;;;0.03;0.03;;;;;;;25.65;94.57;101390.72;10414285;28;20084;-73
2022/08/03 18:25:54;;;;;;;0.00;0.00;;;;;;;25.21;96.89;101385.00;10413736;28;20428;-73
2022/08/03 18:30:54;;;;;;;0.00;0.00;;;;;;;24.84;99.66;101388.06;10414250;28;20112;-73
2022/08/03 18:35:57;;;;;;;0.00;0.00;;;;;;;24.51;100.00;101393.31;10460227;28;20124;-73
2022/08/03 18:40:57;;;;;;;;;;;;;;;24.18;100.00;101390.09;10454989;28;20029;-73
2022/08/03 18:46:04;;;;;;;0.00;0.00;;;;;;;23.99;100.00;101396.69;10454409;28;20383;-73
2022/08/03 18:51:09;;;;;;;0.00;0.00;;;;;;;23.73;100.00;101404.22;10454564;28;20159;-73
2022/08/03 18:56:13;;;;;;;0.00;0.00;;;;;;;23.46;100.00;101414.63;10454062;28;20021;-73
2022/08/03 19:01:34;;;;;;;0.00;0.00;;;;;;;23.23;100.00;101415.34;10454469;28;20055;-72
2022/08/03 19:06:40;;;;;;;0.00;0.00;;;;;;;23.02;100.00;101422.09;10437611;28;20424;-73
2022/08/03 19:11:49;;;;;;;0.10;0.10;;;;;;;22.86;100.00;101417.22;10452837;28;20048;-73
2022/08/03 19:16:56;;;;;;;0.10;0.10;;;;;;;22.73;100.00;101425.53;10453228;28;20067;-73
2022/08/03 19:21:58;;;;;;;0.00;0.00;;;;;;;22.59;100.00;101436.53;10452831;28;20020;-73
2022/08/03 19:26:59;;;;;;;0.00;0.00;;;;;;;22.49;100.00;101433.50;10453162;28;20476;-72
2022/08/03 19:32:00;;;;;;;0.00;0.00;;;;;;;22.38;100.00;101439.66;10452862;28;20044;-73
2022/08/03 19:37:01;;;;;;;0.00;0.00;;;;;;;22.25;100.00;101440.63;10448247;28;20029;-72
2022/08/03 19:42:10;;;;;;;0.00;0.00;;;;;;;22.14;100.00;101444.84;10452560;28;20100;-73
2022/08/03 19:47:32;;;;;;;0.10;0.10;;;;;;;22.04;100.00;101449.91;10452490;28;20242;-72
2022/08/03 19:52:35;;;;;;;0.10;0.10;;;;;;;21.93;100.00;101445.19;10452157;28;20325;-73
2022/08/03 19:57:39;;;;;;;0.00;0.00;;;;;;;21.85;100.00;101446.31;10451969;28;20068;-73
2022/08/03 20:02:40;;;;;;;0.00;0.00;;;;;;;21.79;100.00;101447.19;10451854;28;20032;-72
2022/08/03 20:07:40;;;;;;;0.00;0.00;;;;;;;21.72;100.00;101450.97;10421914;28;20021;-72
2022/08/03 20:12:42;;;;;;;0.00;0.00;;;;;;;21.62;100.00;101437.91;10410459;28;20159;-72
2022/08/03 20:17:43;;;;;;;0.00;0.00;;;;;;;21.52;100.00;101435.66;10411047;28;20045;-72
2022/08/03 20:22:46;;;;;;;0.00;0.00;;;;;;;21.45;100.00;101448.41;10409987;28;20060;-73
2022/08/03 20:27:56;;;;;;;0.00;0.00;;;;;;;21.38;100.00;101453.03;10441969;28;20021;-73
2022/08/03 20:32:56;;;;;;;0.10;0.10;;;;;;;21.31;100.00;101450.31;10410224;28;20075;-73
2022/08/03 20:37:56;;;;;;;0.10;0.10;;;;;;;21.23;100.00;101459.53;10409500;28;20607;-73
2022/08/03 20:42:58;;;;;;;0.00;0.00;;;;;;;21.19;100.00;101457.47;10409523;28;20029;-73
2022/08/03 20:47:59;;;;;;;0.10;0.10;;;;;;;21.14;100.00;101458.09;10409292;28;20028;-72
2022/08/03 20:53:02;;;;;;;0.00;0.00;;;;;;;21.07;100.00;101470.84;10409517;28;20366;-72
2022/08/03 20:58:03;;;;;;;0.07;0.07;;;;;;;21.00;100.00;101475.41;10409161;28;20507;-72
2022/08/03 21:03:05;;;;;;;0.10;0.10;;;;;;;20.92;100.00;101467.56;10409083;28;20064;-73
2022/08/03 21:08:09;;;;;;;0.00;0.00;;;;;;;20.87;100.00;101476.28;10417460;28;20396;-73
2022/08/03 21:13:28;;;;;;;0.00;0.00;;;;;;;20.82;100.00;101478.81;10409185;28;20017;-73
2022/08/03 21:18:30;;;;;;;0.00;0.00;;;;;;;20.73;100.00;101486.31;10408818;28;20083;-73
2022/08/03 21:23:34;;;;;;;0.00;0.00;;;;;;;20.64;100.00;101475.91;10408857;28;20099;-73
2022/08/03 21:28:34;;;;;;;0.00;0.00;;;;;;;20.54;100.00;101481.78;10408597;28;20067;-72
2022/08/03 21:33:35;;;;;;;0.10;0.10;;;;;;;20.40;100.00;101477.38;10415065;28;20013;-73
2022/08/03 21:38:35;;;;;;;0.00;0.00;;;;;;;20.25;100.00;101480.28;10447072;28;20512;-73
2022/08/03 21:43:36;;;;;;;0.00;0.00;;;;;;;20.02;100.00;101480.66;10489118;28;20276;-73
2022/08/03 21:48:38;;;;;;;0.10;0.10;;;;;;;19.92;100.00;101482.94;10456817;28;20507;-73
2022/08/03 21:53:41;;;;;;;0.10;0.10;;;;;;;19.73;100.00;101479.16;10456699;28;20472;-74
2022/08/03 21:58:49;;;;;;;;;;;;;;;19.63;100.00;101474.94;10456830;28;20361;-73
2022/08/03 22:03:54;;;;;;;0.00;0.00;;;;;;;19.58;100.00;101479.28;10447108;28;19923;-73
2022/08/03 22:08:54;;;;;;;0.00;0.00;;;;;;;19.53;100.00;101482.59;10448143;28;20036;-73
2022/08/03 22:13:55;;;;;;;0.10;0.10;;;;;;;19.53;100.00;101477.19;10455899;28;20029;-73
2022/08/03 22:18:55;;;;;;;0.00;0.00;;;;;;;19.58;100.00;101477.41;10455649;28;20818;-73
2022/08/03 22:23:58;;;;;;;0.00;0.00;;;;;;;19.57;100.00;101480.31;10455420;28;20090;-74
2022/08/03 22:28:59;;;;;;;0.00;0.00;;;;;;;19.42;100.00;101484.00;10455331;28;20051;-73
2022/08/03 22:33:59;;;;;;;0.00;0.00;;;;;;;19.41;100.00;101482.34;10444136;28;20032;-73
2022/08/03 22:39:00;;;;;;;0.00;0.00;;;;;;;19.07;100.00;101485.91;10445529;28;20029;-73
2022/08/03 22:44:01;;;;;;;0.10;0.10;;;;;;;18.85;100.00;101485.16;10454315;28;20232;-74
2022/08/03 22:49:02;;;;;;;0.00;0.00;;;;;;;18.80;100.00;101486.78;10454492;28;20411;-73
2022/08/03 22:54:02;;;;;;;0.10;0.10;;;;;;;18.74;100.00;101481.13;10454209;28;20633;-73
2022/08/03 22:59:03;;;;;;;0.10;0.10;;;;;;;18.75;100.00;101488.19;10454335;28;20032;-73
2022/08/03 23:04:05;;;;;;;0.00;0.00;;;;;;;18.76;100.00;101489.00;10440926;28;20326;-73
2022/08/03 23:09:09;;;;;;;0.10;0.10;;;;;;;18.71;100.00;101483.38;10444985;28;20055;-73
2022/08/03 23:14:12;;;;;;;0.10;0.10;;;;;;;18.69;100.00;101474.63;10452010;28;20051;-73
2022/08/03 23:19:14;;;;;;;0.00;0.00;;;;;;;18.68;100.00;101475.66;10438952;28;20495;-73
2022/08/03 23:24:15;;;;;;;0.10;0.10;;;;;;;18.62;100.00;101473.75;10434791;28;20078;-73